Tropical Cyclones
[Index]
Main Index Home Page Stock Weather Photos Extreme Storms Discussion Storm News and Storm Chasing Reports Tropical Cyclones / Hurricanes / Typhoons Weather Data and Links Wild Fires / Bushfires Weather Observation Techniques Weather Picture Catalogue Tornado Pictures and Reports Stock Video Footage and DVDs for sale
Season 1989-1990 Tropical Cyclone CEZERA Track Map
Season 1989-1990 Summaries: [BoM-AU] [JTWC-AU] [JTWC-SIO] [JTWC-SPAC] [JTWC-SH]
<<- Previous TC | JTWC 1989-1990 Season | Next TC ->>

click for intensity scale information  Lat/long Grid: Show Hide

 Date Labels: Show Hide

Joint Typhoon Warning Centre Cyclone Data

Name: CEZERA

01 Feb 1990 06:00 UTC to 10 Feb 1990 00:00 UTC

    date/time    lat    long     hPa   cat  kts
1990-02-01 06   11.1    58.5                  30          
1990-02-01 12   11.1    58.6                  30          
1990-02-01 18   11.1    58.7            1     40          
1990-02-02 00   11.2    59.0            1     50          
1990-02-02 06   11.5    59.4            2     65          
1990-02-02 12   11.9    59.7            2     70          
1990-02-02 18   12.3    59.8            3     80          
1990-02-03 00   12.7    59.9            3     75          
1990-02-03 06   13.0    59.7            2     70          
1990-02-03 12   13.2    59.6            2     65          
1990-02-03 18   13.2    59.5            2     60          
1990-02-04 00   13.1    59.4            2     60          
1990-02-04 06   13.0    59.4            2     55          
1990-02-04 12   12.8    59.1            2     55          
1990-02-04 18   12.6    58.6            2     55          
1990-02-05 00   12.3    58.2            2     55          
1990-02-05 06   12.0    58.0            1     50          
1990-02-05 12   11.8    57.7            1     45          
1990-02-05 18   11.7    57.4            1     45          
1990-02-06 00   11.8    57.1            1     45          
1990-02-06 06   12.1    56.9            1     45          
1990-02-06 12   12.4    56.9            1     45          
1990-02-06 18   12.9    56.9            1     45          
1990-02-07 00   13.4    56.9            1     45          
1990-02-07 06   14.1    57.0            1     45          
1990-02-07 12   14.7    57.3            1     45          
1990-02-07 18   15.3    57.9            1     45          
1990-02-08 00   15.9    58.8            1     45          
1990-02-08 06   16.5    59.9            1     45          
1990-02-08 12   17.0    61.3            1     45          
1990-02-08 18   17.0    62.8            1     45          
1990-02-09 00   16.6    63.9            1     40          
1990-02-09 06   16.4    64.7            1     40          
1990-02-09 12   16.2    65.3                  35          
1990-02-09 18   16.0    65.7                  30          
1990-02-10 00   15.8    66.1                  25          
Winds are 1-min average.

Tropical cyclone tracks developed by Michael Bath using data from the Joint Typhoon Warning Centre Best Tracks and Google Maps.


[Australian Severe Weather index] [Copyright Notice] [Email Contacts] [Search This Site] [Privacy Policy]
Document: tropical_cyclone_cezera.htm Updated: 18 September 2016